sensor_id;sensor_type;location;lat;lon;timestamp;pressure;altitude;pressure_sealevel;temperature;humidity
65659;BME280;60181;53.258;6.932;2022-08-02T00:03:02;102093.04;;;20.51;55.12
65659;BME280;60181;53.258;6.932;2022-08-02T00:07:30;102087.61;;;20.50;55.31
65659;BME280;60181;53.258;6.932;2022-08-02T00:11:58;102085.55;;;20.49;55.43
65659;BME280;60181;53.258;6.932;2022-08-02T00:16:26;102083.62;;;20.49;55.53
65659;BME280;60181;53.258;6.932;2022-08-02T00:20:54;102081.44;;;20.48;55.42
65659;BME280;60181;53.258;6.932;2022-08-02T00:25:22;102079.28;;;20.48;55.46
65659;BME280;60181;53.258;6.932;2022-08-02T00:29:50;102076.61;;;20.47;55.43
65659;BME280;60181;53.258;6.932;2022-08-02T00:34:18;102075.52;;;20.45;55.47
65659;BME280;60181;53.258;6.932;2022-08-02T00:38:46;102076.59;;;20.44;55.50
65659;BME280;60181;53.258;6.932;2022-08-02T00:43:14;102077.67;;;20.43;55.52
65659;BME280;60181;53.258;6.932;2022-08-02T00:47:42;102079.41;;;20.42;55.37
65659;BME280;60181;53.258;6.932;2022-08-02T00:52:10;102079.22;;;20.41;55.45
65659;BME280;60181;53.258;6.932;2022-08-02T00:56:38;102078.00;;;20.42;55.28
65659;BME280;60181;53.258;6.932;2022-08-02T01:01:06;102077.50;;;20.42;55.37
65659;BME280;60181;53.258;6.932;2022-08-02T01:05:34;102076.98;;;20.40;56.96
65659;BME280;60181;53.258;6.932;2022-08-02T01:10:03;102075.22;;;20.37;56.69
65659;BME280;60181;53.258;6.932;2022-08-02T01:14:30;102073.03;;;20.37;56.17
65659;BME280;60181;53.258;6.932;2022-08-02T01:19:00;102072.45;;;20.36;55.59
65659;BME280;60181;53.258;6.932;2022-08-02T01:32:24;102067.36;;;20.36;54.93
65659;BME280;60181;53.258;6.932;2022-08-02T01:36:52;102066.03;;;20.35;54.88
65659;BME280;60181;53.258;6.932;2022-08-02T01:41:20;102065.69;;;20.34;54.80
65659;BME280;60181;53.258;6.932;2022-08-02T01:45:46;102064.59;;;20.32;54.79
65659;BME280;60181;53.258;6.932;2022-08-02T01:50:15;102060.35;;;20.31;54.59
65659;BME280;60181;53.258;6.932;2022-08-02T01:54:42;102052.86;;;20.31;54.33
65659;BME280;60181;53.258;6.932;2022-08-02T01:59:12;102046.70;;;20.31;54.35
65659;BME280;60181;53.258;6.932;2022-08-02T02:03:38;102042.39;;;20.30;54.39
65659;BME280;60181;53.258;6.932;2022-08-02T02:08:06;102039.56;;;20.30;54.24
65659;BME280;60181;53.258;6.932;2022-08-02T02:12:35;102037.86;;;20.29;54.44
65659;BME280;60181;53.258;6.932;2022-08-02T02:17:02;102037.30;;;20.27;54.38
65659;BME280;60181;53.258;6.932;2022-08-02T02:21:30;102035.01;;;20.26;54.31
65659;BME280;60181;53.258;6.932;2022-08-02T02:25:58;102032.01;;;20.24;54.35
65659;BME280;60181;53.258;6.932;2022-08-02T02:30:27;102028.10;;;20.23;54.31
65659;BME280;60181;53.258;6.932;2022-08-02T02:34:55;102022.08;;;20.21;54.29
65659;BME280;60181;53.258;6.932;2022-08-02T02:39:22;102014.17;;;20.20;54.35
65659;BME280;60181;53.258;6.932;2022-08-02T02:43:50;102004.94;;;20.19;54.23
65659;BME280;60181;53.258;6.932;2022-08-02T02:48:18;101998.46;;;20.17;54.30
65659;BME280;60181;53.258;6.932;2022-08-02T02:52:46;101993.95;;;20.16;54.31
65659;BME280;60181;53.258;6.932;2022-08-02T02:57:14;101990.02;;;20.15;54.19
65659;BME280;60181;53.258;6.932;2022-08-02T03:01:42;101986.85;;;20.14;54.28
65659;BME280;60181;53.258;6.932;2022-08-02T03:06:10;101985.52;;;20.14;54.12
65659;BME280;60181;53.258;6.932;2022-08-02T03:10:38;101983.76;;;20.14;54.20
65659;BME280;60181;53.258;6.932;2022-08-02T03:15:07;101981.43;;;20.12;54.22
65659;BME280;60181;53.258;6.932;2022-08-02T03:19:34;101980.19;;;20.12;54.18
65659;BME280;60181;53.258;6.932;2022-08-02T03:24:02;101977.35;;;20.11;54.90
65659;BME280;60181;53.258;6.932;2022-08-02T03:28:30;101974.76;;;20.10;54.15
65659;BME280;60181;53.258;6.932;2022-08-02T03:32:58;101969.69;;;20.10;54.22
65659;BME280;60181;53.258;6.932;2022-08-02T03:37:26;101964.45;;;20.10;54.07
65659;BME280;60181;53.258;6.932;2022-08-02T03:41:54;101961.54;;;20.10;54.02
65659;BME280;60181;53.258;6.932;2022-08-02T03:46:22;101957.45;;;20.09;54.02
65659;BME280;60181;53.258;6.932;2022-08-02T03:50:50;101952.81;;;20.09;53.99
65659;BME280;60181;53.258;6.932;2022-08-02T03:55:18;101948.74;;;20.08;53.94
65659;BME280;60181;53.258;6.932;2022-08-02T03:59:46;101944.89;;;20.08;53.96
65659;BME280;60181;53.258;6.932;2022-08-02T04:04:14;101942.49;;;20.09;53.94
65659;BME280;60181;53.258;6.932;2022-08-02T04:08:42;101939.50;;;20.10;53.98
65659;BME280;60181;53.258;6.932;2022-08-02T04:13:10;101935.35;;;20.10;53.99
65659;BME280;60181;53.258;6.932;2022-08-02T04:17:40;101932.09;;;20.10;53.99
65659;BME280;60181;53.258;6.932;2022-08-02T04:22:08;101928.88;;;20.13;53.72
65659;BME280;60181;53.258;6.932;2022-08-02T04:26:34;101925.58;;;20.17;53.54
65659;BME280;60181;53.258;6.932;2022-08-02T04:31:02;101924.67;;;20.19;53.91
65659;BME280;60181;53.258;6.932;2022-08-02T04:35:30;101921.77;;;20.19;53.82
65659;BME280;60181;53.258;6.932;2022-08-02T04:39:58;101921.64;;;20.26;53.49
65659;BME280;60181;53.258;6.932;2022-08-02T04:44:26;101921.26;;;20.33;53.18
65659;BME280;60181;53.258;6.932;2022-08-02T04:48:54;101920.34;;;20.34;53.54
65659;BME280;60181;53.258;6.932;2022-08-02T04:53:22;101920.26;;;20.35;53.53
65659;BME280;60181;53.258;6.932;2022-08-02T04:57:50;101921.01;;;20.34;53.53
65659;BME280;60181;53.258;6.932;2022-08-02T05:02:18;101922.42;;;20.33;53.51
65659;BME280;60181;53.258;6.932;2022-08-02T05:06:46;101922.49;;;20.31;53.58
65659;BME280;60181;53.258;6.932;2022-08-02T05:11:14;101921.75;;;20.29;53.59
65659;BME280;60181;53.258;6.932;2022-08-02T05:15:42;101921.66;;;20.27;53.77
65659;BME280;60181;53.258;6.932;2022-08-02T05:20:11;101918.31;;;20.25;53.85
65659;BME280;60181;53.258;6.932;2022-08-02T05:24:38;101917.38;;;20.23;53.99
65659;BME280;60181;53.258;6.932;2022-08-02T05:29:06;101916.53;;;20.21;54.16
65659;BME280;60181;53.258;6.932;2022-08-02T05:33:34;101915.67;;;20.19;54.28
65659;BME280;60181;53.258;6.932;2022-08-02T05:38:02;101912.61;;;20.17;54.41
65659;BME280;60181;53.258;6.932;2022-08-02T05:42:30;101910.91;;;20.16;54.43
65659;BME280;60181;53.258;6.932;2022-08-02T05:46:58;101909.33;;;20.14;54.56
65659;BME280;60181;53.258;6.932;2022-08-02T06:00:22;101900.45;;;20.15;54.73
65659;BME280;60181;53.258;6.932;2022-08-02T06:04:56;101900.62;;;20.16;54.81
65659;BME280;60181;53.258;6.932;2022-08-02T06:09:18;101903.87;;;20.18;54.83
65659;BME280;60181;53.258;6.932;2022-08-02T06:13:46;101906.87;;;20.20;54.83
65659;BME280;60181;53.258;6.932;2022-08-02T06:18:14;101908.06;;;20.23;54.76
65659;BME280;60181;53.258;6.932;2022-08-02T06:22:42;101907.17;;;20.26;54.74
65659;BME280;60181;53.258;6.932;2022-08-02T06:27:13;101905.84;;;20.30;54.77
65659;BME280;60181;53.258;6.932;2022-08-02T06:31:39;101904.68;;;20.31;55.00
65659;BME280;60181;53.258;6.932;2022-08-02T06:36:14;101902.12;;;20.33;55.00
65659;BME280;60181;53.258;6.932;2022-08-02T06:40:59;101899.22;;;20.35;55.00
65659;BME280;60181;53.258;6.932;2022-08-02T06:45:02;101896.00;;;20.38;55.00
65659;BME280;60181;53.258;6.932;2022-08-02T06:49:30;101892.92;;;20.41;54.96
65659;BME280;60181;53.258;6.932;2022-08-02T06:53:58;101891.86;;;20.44;54.63
65659;BME280;60181;53.258;6.932;2022-08-02T06:58:26;101891.31;;;20.56;54.15
65659;BME280;60181;53.258;6.932;2022-08-02T07:02:54;101890.03;;;20.66;54.63
65659;BME280;60181;53.258;6.932;2022-08-02T07:07:22;101887.72;;;20.73;55.43
65659;BME280;60181;53.258;6.932;2022-08-02T07:11:50;101885.44;;;20.77;55.59
65659;BME280;60181;53.258;6.932;2022-08-02T07:16:18;101881.52;;;20.83;55.13
65659;BME280;60181;53.258;6.932;2022-08-02T07:20:46;101878.16;;;20.95;54.24
65659;BME280;60181;53.258;6.932;2022-08-02T07:25:14;101871.60;;;21.13;53.52
65659;BME280;60181;53.258;6.932;2022-08-02T07:29:42;101867.44;;;21.32;53.36
65659;BME280;60181;53.258;6.932;2022-08-02T07:34:10;101865.18;;;21.51;53.27
65659;BME280;60181;53.258;6.932;2022-08-02T07:38:38;101864.45;;;21.64;53.88
65659;BME280;60181;53.258;6.932;2022-08-02T07:43:06;101862.12;;;21.73;54.16
65659;BME280;60181;53.258;6.932;2022-08-02T07:47:37;101859.36;;;21.81;54.13
65659;BME280;60181;53.258;6.932;2022-08-02T07:52:02;101855.58;;;21.91;53.53
65659;BME280;60181;53.258;6.932;2022-08-02T07:56:30;101850.73;;;22.02;53.42
65659;BME280;60181;53.258;6.932;2022-08-02T08:00:58;101846.61;;;22.12;53.39
65659;BME280;60181;53.258;6.932;2022-08-02T08:05:26;101843.66;;;22.20;53.42
65659;BME280;60181;53.258;6.932;2022-08-02T08:09:54;101841.52;;;22.29;53.32
65659;BME280;60181;53.258;6.932;2022-08-02T08:14:22;101838.25;;;22.36;53.41
65659;BME280;60181;53.258;6.932;2022-08-02T08:18:50;101836.13;;;22.41;53.57
65659;BME280;60181;53.258;6.932;2022-08-02T08:23:18;101835.64;;;22.45;53.53
65659;BME280;60181;53.258;6.932;2022-08-02T08:27:46;101834.19;;;22.48;53.68
65659;BME280;60181;53.258;6.932;2022-08-02T08:32:14;101832.45;;;22.49;53.95
65659;BME280;60181;53.258;6.932;2022-08-02T08:36:42;101828.02;;;22.50;53.92
65659;BME280;60181;53.258;6.932;2022-08-02T08:41:10;101821.73;;;22.51;54.14
65659;BME280;60181;53.258;6.932;2022-08-02T08:45:38;101816.15;;;22.52;54.08
65659;BME280;60181;53.258;6.932;2022-08-02T08:50:07;101812.64;;;22.52;54.27
65659;BME280;60181;53.258;6.932;2022-08-02T08:54:34;101809.81;;;22.51;54.42
65659;BME280;60181;53.258;6.932;2022-08-02T08:59:02;101807.99;;;22.49;54.42
65659;BME280;60181;53.258;6.932;2022-08-02T09:03:30;101806.58;;;22.46;54.82
65659;BME280;60181;53.258;6.932;2022-08-02T09:07:58;101804.75;;;22.44;54.75
65659;BME280;60181;53.258;6.932;2022-08-02T09:12:26;101802.85;;;22.43;54.69
65659;BME280;60181;53.258;6.932;2022-08-02T09:17:04;101800.67;;;22.43;54.76
65659;BME280;60181;53.258;6.932;2022-08-02T09:21:23;101799.10;;;22.42;54.95
65659;BME280;60181;53.258;6.932;2022-08-02T09:25:59;101796.34;;;22.41;54.70
65659;BME280;60181;53.258;6.932;2022-08-02T09:30:18;101792.97;;;22.41;55.01
65659;BME280;60181;53.258;6.932;2022-08-02T09:34:49;101788.06;;;22.40;54.99
65659;BME280;60181;53.258;6.932;2022-08-02T09:39:14;101785.46;;;22.40;54.88
65659;BME280;60181;53.258;6.932;2022-08-02T09:43:42;101783.45;;;22.40;54.88
65659;BME280;60181;53.258;6.932;2022-08-02T09:48:10;101781.62;;;22.40;54.92
65659;BME280;60181;53.258;6.932;2022-08-02T09:52:38;101780.20;;;22.40;54.96
65659;BME280;60181;53.258;6.932;2022-08-02T09:57:06;101779.32;;;22.39;55.17
65659;BME280;60181;53.258;6.932;2022-08-02T10:01:34;101779.47;;;22.37;55.31
65659;BME280;60181;53.258;6.932;2022-08-02T10:06:02;101776.90;;;22.35;55.53
65659;BME280;60181;53.258;6.932;2022-08-02T10:10:30;101773.41;;;22.32;55.78
65659;BME280;60181;53.258;6.932;2022-08-02T10:14:58;101769.16;;;22.30;55.75
65659;BME280;60181;53.258;6.932;2022-08-02T10:19:26;101766.07;;;22.29;55.63
65659;BME280;60181;53.258;6.932;2022-08-02T10:23:54;101762.94;;;22.28;55.74
65659;BME280;60181;53.258;6.932;2022-08-02T10:28:24;101759.50;;;22.27;55.91
65659;BME280;60181;53.258;6.932;2022-08-02T10:32:50;101755.41;;;22.26;55.82
65659;BME280;60181;53.258;6.932;2022-08-02T10:37:18;101752.40;;;22.25;56.02
65659;BME280;60181;53.258;6.932;2022-08-02T10:41:47;101748.41;;;22.24;56.07
65659;BME280;60181;53.258;6.932;2022-08-02T10:46:23;101742.75;;;22.24;56.08
65659;BME280;60181;53.258;6.932;2022-08-02T10:55:10;101730.81;;;22.23;56.05
65659;BME280;60181;53.258;6.932;2022-08-02T10:59:38;101727.22;;;22.22;56.11
65659;BME280;60181;53.258;6.932;2022-08-02T11:04:05;101723.97;;;22.22;56.11
65659;BME280;60181;53.258;6.932;2022-08-02T11:08:34;101720.65;;;22.22;56.08
65659;BME280;60181;53.258;6.932;2022-08-02T11:22:07;101708.94;;;22.26;55.96
65659;BME280;60181;53.258;6.932;2022-08-02T11:30:57;101704.17;;;22.28;56.17
65659;BME280;60181;53.258;6.932;2022-08-02T11:35:21;101703.31;;;22.29;56.24
65659;BME280;60181;53.258;6.932;2022-08-02T11:39:49;101703.49;;;22.29;56.13
65659;BME280;60181;53.258;6.932;2022-08-02T11:44:18;101702.64;;;22.29;56.32
65659;BME280;60181;53.258;6.932;2022-08-02T11:48:45;101701.81;;;22.29;56.14
65659;BME280;60181;53.258;6.932;2022-08-02T11:53:14;101700.66;;;22.29;56.22
65659;BME280;60181;53.258;6.932;2022-08-02T11:57:41;101698.89;;;22.30;56.32
65659;BME280;60181;53.258;6.932;2022-08-02T12:02:10;101696.66;;;22.29;56.40
65659;BME280;60181;53.258;6.932;2022-08-02T12:06:37;101693.31;;;22.29;56.33
65659;BME280;60181;53.258;6.932;2022-08-02T12:11:05;101693.30;;;22.30;56.33
65659;BME280;60181;53.258;6.932;2022-08-02T12:15:37;101693.31;;;22.30;56.42
65659;BME280;60181;53.258;6.932;2022-08-02T12:20:02;101693.45;;;22.31;56.43
65659;BME280;60181;53.258;6.932;2022-08-02T12:24:29;101692.07;;;22.31;56.50
65659;BME280;60181;53.258;6.932;2022-08-02T12:28:57;101691.71;;;22.32;56.43
65659;BME280;60181;53.258;6.932;2022-08-02T12:33:26;101691.55;;;22.32;56.40
65659;BME280;60181;53.258;6.932;2022-08-02T12:37:53;101691.46;;;22.32;56.42
65659;BME280;60181;53.258;6.932;2022-08-02T12:42:22;101690.73;;;22.31;56.71
65659;BME280;60181;53.258;6.932;2022-08-02T12:47:02;101690.80;;;22.30;56.77
65659;BME280;60181;53.258;6.932;2022-08-02T12:51:28;101690.48;;;22.29;56.63
65659;BME280;60181;53.258;6.932;2022-08-02T12:55:46;101690.12;;;22.29;56.62
65659;BME280;60181;53.258;6.932;2022-08-02T13:00:21;101688.89;;;22.28;56.64
65659;BME280;60181;53.258;6.932;2022-08-02T13:04:42;101686.88;;;22.28;56.71
65659;BME280;60181;53.258;6.932;2022-08-02T13:09:13;101686.05;;;22.28;56.65
65659;BME280;60181;53.258;6.932;2022-08-02T13:13:37;101685.74;;;22.28;56.92
65659;BME280;60181;53.258;6.932;2022-08-02T13:18:05;101685.14;;;22.27;56.98
65659;BME280;60181;53.258;6.932;2022-08-02T13:22:34;101684.07;;;22.27;56.88
65659;BME280;60181;53.258;6.932;2022-08-02T13:27:01;101681.83;;;22.27;56.92
65659;BME280;60181;53.258;6.932;2022-08-02T13:31:29;101681.40;;;22.27;56.89
65659;BME280;60181;53.258;6.932;2022-08-02T13:35:57;101680.74;;;22.27;56.92
65659;BME280;60181;53.258;6.932;2022-08-02T13:40:25;101681.72;;;22.27;56.85
65659;BME280;60181;53.258;6.932;2022-08-02T13:44:53;101682.83;;;22.28;56.96
65659;BME280;60181;53.258;6.932;2022-08-02T13:49:21;101682.31;;;22.27;57.06
65659;BME280;60181;53.258;6.932;2022-08-02T13:53:49;101680.81;;;22.26;57.06
65659;BME280;60181;53.258;6.932;2022-08-02T13:58:17;101679.32;;;22.25;57.18
65659;BME280;60181;53.258;6.932;2022-08-02T14:02:45;101677.65;;;22.24;57.21
65659;BME280;60181;53.258;6.932;2022-08-02T14:07:13;101674.41;;;22.23;57.29
65659;BME280;60181;53.258;6.932;2022-08-02T14:11:41;101671.58;;;22.22;57.30
65659;BME280;60181;53.258;6.932;2022-08-02T14:16:09;101669.19;;;22.21;57.36
65659;BME280;60181;53.258;6.932;2022-08-02T14:20:37;101666.92;;;22.20;57.42
65659;BME280;60181;53.258;6.932;2022-08-02T14:25:06;101664.51;;;22.19;57.89
65659;BME280;60181;53.258;6.932;2022-08-02T14:29:33;101662.76;;;22.19;58.13
65659;BME280;60181;53.258;6.932;2022-08-02T14:34:01;101658.18;;;22.19;58.56
65659;BME280;60181;53.258;6.932;2022-08-02T14:38:29;101653.82;;;22.19;58.70
65659;BME280;60181;53.258;6.932;2022-08-02T14:43:00;101649.57;;;22.20;58.63
65659;BME280;60181;53.258;6.932;2022-08-02T14:47:25;101644.30;;;22.22;58.91
65659;BME280;60181;53.258;6.932;2022-08-02T14:51:53;101639.53;;;22.23;59.16
65659;BME280;60181;53.258;6.932;2022-08-02T14:56:21;101636.10;;;22.24;59.33
65659;BME280;60181;53.258;6.932;2022-08-02T15:00:49;101636.50;;;22.25;59.41
65659;BME280;60181;53.258;6.932;2022-08-02T15:05:17;101638.17;;;22.27;59.38
65659;BME280;60181;53.258;6.932;2022-08-02T15:09:45;101637.15;;;22.28;59.29
65659;BME280;60181;53.258;6.932;2022-08-02T15:14:13;101633.06;;;22.30;59.26
65659;BME280;60181;53.258;6.932;2022-08-02T15:18:41;101629.27;;;22.32;59.26
65659;BME280;60181;53.258;6.932;2022-08-02T15:23:09;101625.27;;;22.34;59.30
65659;BME280;60181;53.258;6.932;2022-08-02T15:27:37;101620.58;;;22.35;59.30
65659;BME280;60181;53.258;6.932;2022-08-02T15:32:05;101614.81;;;22.37;59.35
65659;BME280;60181;53.258;6.932;2022-08-02T15:36:33;101608.78;;;22.39;59.59
65659;BME280;60181;53.258;6.932;2022-08-02T15:41:01;101604.17;;;22.40;59.96
65659;BME280;60181;53.258;6.932;2022-08-02T15:45:29;101600.83;;;22.41;60.07
65659;BME280;60181;53.258;6.932;2022-08-02T15:49:57;101598.53;;;22.42;60.13
65659;BME280;60181;53.258;6.932;2022-08-02T15:54:25;101596.90;;;22.45;60.15
65659;BME280;60181;53.258;6.932;2022-08-02T15:58:53;101595.14;;;22.48;60.16
65659;BME280;60181;53.258;6.932;2022-08-02T16:03:21;101595.43;;;22.51;60.28
65659;BME280;60181;53.258;6.932;2022-08-02T16:07:49;101595.68;;;22.53;60.60
65659;BME280;60181;53.258;6.932;2022-08-02T16:12:17;101595.23;;;22.54;60.73
65659;BME280;60181;53.258;6.932;2022-08-02T16:16:45;101594.56;;;22.55;60.67
65659;BME280;60181;53.258;6.932;2022-08-02T16:21:13;101593.97;;;22.57;60.75
65659;BME280;60181;53.258;6.932;2022-08-02T16:25:41;101591.61;;;22.59;60.93
65659;BME280;60181;53.258;6.932;2022-08-02T16:30:10;101589.43;;;22.61;61.03
65659;BME280;60181;53.258;6.932;2022-08-02T16:34:37;101587.22;;;22.64;61.51
65659;BME280;60181;53.258;6.932;2022-08-02T16:39:05;101586.92;;;22.69;61.40
65659;BME280;60181;53.258;6.932;2022-08-02T16:43:33;101587.47;;;22.74;61.34
65659;BME280;60181;53.258;6.932;2022-08-02T16:48:01;101588.03;;;22.76;61.50
65659;BME280;60181;53.258;6.932;2022-08-02T16:52:29;101586.66;;;22.78;61.52
65659;BME280;60181;53.258;6.932;2022-08-02T16:56:57;101584.50;;;22.78;61.63
65659;BME280;60181;53.258;6.932;2022-08-02T17:01:25;101584.15;;;22.79;61.40
65659;BME280;60181;53.258;6.932;2022-08-02T17:05:53;101583.65;;;22.79;61.37
65659;BME280;60181;53.258;6.932;2022-08-02T17:10:21;101581.98;;;22.79;61.29
65659;BME280;60181;53.258;6.932;2022-08-02T17:14:49;101580.58;;;22.77;61.30
65659;BME280;60181;53.258;6.932;2022-08-02T17:19:17;101580.17;;;22.76;61.22
65659;BME280;60181;53.258;6.932;2022-08-02T17:23:45;101581.72;;;22.73;61.40
65659;BME280;60181;53.258;6.932;2022-08-02T17:28:13;101585.99;;;22.71;61.55
65659;BME280;60181;53.258;6.932;2022-08-02T17:32:41;101590.77;;;22.68;61.65
65659;BME280;60181;53.258;6.932;2022-08-02T17:37:09;101593.64;;;22.66;61.66
65659;BME280;60181;53.258;6.932;2022-08-02T17:41:37;101596.04;;;22.64;61.79
65659;BME280;60181;53.258;6.932;2022-08-02T17:46:05;101597.50;;;22.64;61.61
65659;BME280;60181;53.258;6.932;2022-08-02T17:50:33;101598.75;;;22.63;61.79
65659;BME280;60181;53.258;6.932;2022-08-02T17:55:01;101600.02;;;22.61;61.79
65659;BME280;60181;53.258;6.932;2022-08-02T17:59:29;101601.06;;;22.59;61.89
65659;BME280;60181;53.258;6.932;2022-08-02T18:03:57;101599.50;;;22.57;62.07
65659;BME280;60181;53.258;6.932;2022-08-02T18:08:25;101599.33;;;22.54;62.13
65659;BME280;60181;53.258;6.932;2022-08-02T18:12:53;101600.37;;;22.52;62.07
65659;BME280;60181;53.258;6.932;2022-08-02T18:17:21;101600.87;;;22.49;61.98
65659;BME280;60181;53.258;6.932;2022-08-02T18:21:49;101601.23;;;22.49;61.75
65659;BME280;60181;53.258;6.932;2022-08-02T18:26:17;101602.29;;;22.49;61.87
65659;BME280;60181;53.258;6.932;2022-08-02T18:30:45;101602.81;;;22.49;61.83
65659;BME280;60181;53.258;6.932;2022-08-02T18:35:13;101603.74;;;22.49;61.92
65659;BME280;60181;53.258;6.932;2022-08-02T18:39:41;101605.07;;;22.49;61.91
65659;BME280;60181;53.258;6.932;2022-08-02T18:44:09;101606.81;;;22.49;61.90
65659;BME280;60181;53.258;6.932;2022-08-02T18:48:37;101608.15;;;22.49;62.06
65659;BME280;60181;53.258;6.932;2022-08-02T18:53:05;101609.33;;;22.48;62.11
65659;BME280;60181;53.258;6.932;2022-08-02T18:57:33;101610.27;;;22.47;62.17
65659;BME280;60181;53.258;6.932;2022-08-02T19:02:01;101611.92;;;22.45;62.17
65659;BME280;60181;53.258;6.932;2022-08-02T19:06:29;101614.26;;;22.44;62.34
65659;BME280;60181;53.258;6.932;2022-08-02T19:10:57;101614.61;;;22.43;62.36
65659;BME280;60181;53.258;6.932;2022-08-02T19:15:25;101613.81;;;22.42;62.49
65659;BME280;60181;53.258;6.932;2022-08-02T19:19:53;101613.39;;;22.41;62.40
65659;BME280;60181;53.258;6.932;2022-08-02T19:24:21;101612.62;;;22.40;62.54
65659;BME280;60181;53.258;6.932;2022-08-02T19:28:49;101611.70;;;22.39;62.41
65659;BME280;60181;53.258;6.932;2022-08-02T19:33:17;101611.28;;;22.39;62.54
65659;BME280;60181;53.258;6.932;2022-08-02T19:37:45;101610.57;;;22.38;62.67
65659;BME280;60181;53.258;6.932;2022-08-02T19:42:13;101610.40;;;22.37;62.80
65659;BME280;60181;53.258;6.932;2022-08-02T19:46:41;101611.41;;;22.36;62.80
65659;BME280;60181;53.258;6.932;2022-08-02T19:51:09;101613.48;;;22.35;62.90
65659;BME280;60181;53.258;6.932;2022-08-02T19:55:37;101615.41;;;22.34;62.93
65659;BME280;60181;53.258;6.932;2022-08-02T20:00:06;101618.59;;;22.34;62.88
65659;BME280;60181;53.258;6.932;2022-08-02T20:04:33;101620.42;;;22.33;63.00
65659;BME280;60181;53.258;6.932;2022-08-02T20:09:01;101621.11;;;22.33;62.98
65659;BME280;60181;53.258;6.932;2022-08-02T20:13:29;101621.92;;;22.32;63.11
65659;BME280;60181;53.258;6.932;2022-08-02T20:17:57;101622.44;;;22.32;63.07
65659;BME280;60181;53.258;6.932;2022-08-02T20:22:25;101622.71;;;22.31;63.09
65659;BME280;60181;53.258;6.932;2022-08-02T20:26:53;101621.62;;;22.31;63.02
65659;BME280;60181;53.258;6.932;2022-08-02T20:31:21;101620.68;;;22.31;63.11
65659;BME280;60181;53.258;6.932;2022-08-02T20:35:49;101621.20;;;22.30;63.18
65659;BME280;60181;53.258;6.932;2022-08-02T20:40:17;101621.70;;;22.29;63.52
65659;BME280;60181;53.258;6.932;2022-08-02T20:44:45;101621.73;;;22.28;63.67
65659;BME280;60181;53.258;6.932;2022-08-02T20:49:13;101621.75;;;22.27;64.12
65659;BME280;60181;53.258;6.932;2022-08-02T20:53:41;101620.82;;;22.26;64.24
65659;BME280;60181;53.258;6.932;2022-08-02T20:58:09;101619.14;;;22.25;64.29
65659;BME280;60181;53.258;6.932;2022-08-02T21:02:37;101616.83;;;22.25;64.44
65659;BME280;60181;53.258;6.932;2022-08-02T21:07:05;101615.51;;;22.24;64.60
65659;BME280;60181;53.258;6.932;2022-08-02T21:11:33;101613.65;;;22.24;64.63
65659;BME280;60181;53.258;6.932;2022-08-02T21:16:01;101613.25;;;22.24;64.51
65659;BME280;60181;53.258;6.932;2022-08-02T21:20:29;101612.91;;;22.23;64.62
65659;BME280;60181;53.258;6.932;2022-08-02T21:24:57;101612.92;;;22.23;64.59
65659;BME280;60181;53.258;6.932;2022-08-02T21:29:25;101613.08;;;22.22;64.94
65659;BME280;60181;53.258;6.932;2022-08-02T21:33:53;101612.85;;;22.21;64.66
65659;BME280;60181;53.258;6.932;2022-08-02T21:38:21;101612.67;;;22.21;65.04
65659;BME280;60181;53.258;6.932;2022-08-02T21:42:49;101612.34;;;22.20;64.98
65659;BME280;60181;53.258;6.932;2022-08-02T21:47:17;101612.86;;;22.19;65.15
65659;BME280;60181;53.258;6.932;2022-08-02T21:51:45;101612.11;;;22.18;65.29
65659;BME280;60181;53.258;6.932;2022-08-02T21:56:13;101611.28;;;22.17;65.33
65659;BME280;60181;53.258;6.932;2022-08-02T22:00:41;101610.57;;;22.17;65.19
65659;BME280;60181;53.258;6.932;2022-08-02T22:05:09;101610.11;;;22.17;65.97
65659;BME280;60181;53.258;6.932;2022-08-02T22:09:37;101608.28;;;22.20;66.03
65659;BME280;60181;53.258;6.932;2022-08-02T22:14:05;101607.73;;;22.23;66.08
65659;BME280;60181;53.258;6.932;2022-08-02T22:18:33;101607.30;;;22.25;65.65
65659;BME280;60181;53.258;6.932;2022-08-02T22:23:01;101606.47;;;22.26;65.39
65659;BME280;60181;53.258;6.932;2022-08-02T22:27:29;101606.37;;;22.26;65.29
65659;BME280;60181;53.258;6.932;2022-08-02T22:31:57;101606.64;;;22.26;65.10
65659;BME280;60181;53.258;6.932;2022-08-02T22:36:25;101607.40;;;22.26;65.39
65659;BME280;60181;53.258;6.932;2022-08-02T22:40:53;101608.56;;;22.25;65.39
65659;BME280;60181;53.258;6.932;2022-08-02T22:45:21;101610.00;;;22.24;65.27
65659;BME280;60181;53.258;6.932;2022-08-02T22:49:49;101612.66;;;22.24;65.21
65659;BME280;60181;53.258;6.932;2022-08-02T22:54:17;101613.67;;;22.23;65.73
65659;BME280;60181;53.258;6.932;2022-08-02T22:58:45;101614.67;;;22.23;65.22
65659;BME280;60181;53.258;6.932;2022-08-02T23:03:12;101614.40;;;22.22;65.27
65659;BME280;60181;53.258;6.932;2022-08-02T23:07:40;101615.77;;;22.22;65.26
65659;BME280;60181;53.258;6.932;2022-08-02T23:12:08;101616.36;;;22.21;65.55
65659;BME280;60181;53.258;6.932;2022-08-02T23:16:36;101616.01;;;22.21;65.33
65659;BME280;60181;53.258;6.932;2022-08-02T23:21:04;101614.60;;;22.20;65.54
65659;BME280;60181;53.258;6.932;2022-08-02T23:25:32;101613.36;;;22.20;65.46
65659;BME280;60181;53.258;6.932;2022-08-02T23:30:01;101612.28;;;22.20;65.46
65659;BME280;60181;53.258;6.932;2022-08-02T23:34:28;101610.94;;;22.19;65.61
65659;BME280;60181;53.258;6.932;2022-08-02T23:38:56;101609.78;;;22.19;65.76
65659;BME280;60181;53.258;6.932;2022-08-02T23:43:24;101608.51;;;22.19;65.69
65659;BME280;60181;53.258;6.932;2022-08-02T23:47:52;101608.26;;;22.19;65.68
65659;BME280;60181;53.258;6.932;2022-08-02T23:52:20;101607.67;;;22.20;66.16
65659;BME280;60181;53.258;6.932;2022-08-02T23:56:48;101606.50;;;22.20;65.60
